createdAt,value
2018-12-11T00:01:42.480Z,5.80
2018-12-11T00:04:10.724Z,5.83
2018-12-11T00:06:38.974Z,6.43
2018-12-11T00:09:07.380Z,5.30
2018-12-11T00:11:35.798Z,6.17
2018-12-11T00:14:04.116Z,4.97
2018-12-11T00:16:32.379Z,5.73
2018-12-11T00:19:00.628Z,6.33
2018-12-11T00:21:28.999Z,5.67
2018-12-11T00:23:57.256Z,5.50
2018-12-11T00:26:25.491Z,6.20
2018-12-11T00:28:53.768Z,6.63
2018-12-11T00:31:22.115Z,5.70
2018-12-11T00:33:50.444Z,6.40
2018-12-11T00:36:18.699Z,6.50
2018-12-11T00:38:46.906Z,5.73
2018-12-11T00:41:15.137Z,5.27
2018-12-11T00:43:43.380Z,5.50
2018-12-11T00:46:11.711Z,5.87
2018-12-11T00:48:40.005Z,5.67
2018-12-11T00:51:08.291Z,4.90
2018-12-11T00:53:36.570Z,5.97
2018-12-11T00:56:04.881Z,7.37
2018-12-11T00:58:33.110Z,6.80
2018-12-11T01:01:01.423Z,5.73
2018-12-11T02:30:49.865Z,6.27
2018-12-11T02:33:18.323Z,5.07
2018-12-11T02:35:46.815Z,5.93
2018-12-11T02:40:53.961Z,5.40
2018-12-11T02:43:22.570Z,5.13
2018-12-11T02:45:51.101Z,4.83
2018-12-11T02:48:19.718Z,5.10
2018-12-11T02:50:48.275Z,4.63
2018-12-11T02:53:16.857Z,5.30
2018-12-11T03:04:20.840Z,4.70
2018-12-11T03:06:49.420Z,4.93
2018-12-11T03:09:18.018Z,5.03
2018-12-11T03:11:46.594Z,5.00
2018-12-11T03:14:15.223Z,4.50
2018-12-11T03:16:43.787Z,4.13
2018-12-11T03:27:37.824Z,4.93
2018-12-11T03:30:06.712Z,4.47
2018-12-11T03:32:35.268Z,4.73
2018-12-11T03:35:03.921Z,6.63
2018-12-11T03:37:32.487Z,4.43
2018-12-11T03:40:01.017Z,4.47
2018-12-11T03:42:29.553Z,4.87
2018-12-11T03:44:58.100Z,4.27
2018-12-11T03:47:26.701Z,4.30
2018-12-11T03:49:55.308Z,4.60
2018-12-11T04:00:56.556Z,3.70
2018-12-11T04:03:24.803Z,4.90
2018-12-11T04:05:53.011Z,4.43
2018-12-11T04:08:21.302Z,3.70
2018-12-11T04:10:50.119Z,3.57
2018-12-11T04:13:18.414Z,5.30
2018-12-11T04:15:46.607Z,4.00
2018-12-11T04:18:14.940Z,3.93
2018-12-11T04:20:43.193Z,4.07
2018-12-11T04:23:11.439Z,3.87
2018-12-11T04:25:39.681Z,4.37
2018-12-11T04:28:07.913Z,4.73
2018-12-11T04:30:36.118Z,3.67
2018-12-11T04:33:04.353Z,4.13
2018-12-11T04:35:32.554Z,4.37
2018-12-11T04:38:00.784Z,4.07
2018-12-11T04:40:29.131Z,4.23
2018-12-11T04:42:57.347Z,4.33
2018-12-11T04:45:25.662Z,3.97
2018-12-11T04:47:53.885Z,3.73
2018-12-11T04:50:22.117Z,3.90
2018-12-11T04:52:50.380Z,4.00
2018-12-11T04:55:18.633Z,3.30
2018-12-11T04:57:46.881Z,3.80
2018-12-11T05:00:15.107Z,3.93
2018-12-11T05:02:43.315Z,4.60
2018-12-11T05:05:11.522Z,3.90
2018-12-11T05:07:39.729Z,3.70
2018-12-11T05:10:08.355Z,2.97
2018-12-11T05:12:36.571Z,3.20
2018-12-11T05:15:05.231Z,3.87
2018-12-11T05:17:33.495Z,3.63
2018-12-11T05:20:01.776Z,3.10
2018-12-11T05:22:29.999Z,3.90
2018-12-11T05:24:58.419Z,3.13
2018-12-11T05:27:26.651Z,3.47
2018-12-11T05:29:54.869Z,3.30
2018-12-11T05:32:23.135Z,3.70
2018-12-11T05:34:51.389Z,3.30
2018-12-11T05:37:19.809Z,3.17
2018-12-11T05:39:48.064Z,3.93
2018-12-11T05:42:16.269Z,3.40
2018-12-11T05:44:44.581Z,4.37
2018-12-11T05:47:12.783Z,3.37
2018-12-11T05:49:41.103Z,3.40
2018-12-11T05:52:09.313Z,3.33
2018-12-11T05:54:37.518Z,3.03
2018-12-11T05:57:05.723Z,3.07
2018-12-11T05:59:33.959Z,3.17
2018-12-11T06:02:02.194Z,2.60
2018-12-11T06:04:30.472Z,2.70
2018-12-11T06:06:58.691Z,3.00
2018-12-11T06:09:26.930Z,3.23
2018-12-11T06:11:55.215Z,4.37
2018-12-11T06:14:23.435Z,3.00
2018-12-11T06:16:51.653Z,2.97
2018-12-11T06:19:19.873Z,2.97
2018-12-11T06:21:48.127Z,2.73
2018-12-11T06:24:16.368Z,2.60
2018-12-11T06:26:44.630Z,3.27
2018-12-11T06:29:12.885Z,3.30
2018-12-11T06:31:41.126Z,2.30
2018-12-11T06:34:09.344Z,3.00
2018-12-11T06:36:37.542Z,3.73
2018-12-11T06:39:06.982Z,3.40
2018-12-11T06:41:35.266Z,2.73
2018-12-11T06:44:03.543Z,2.07
2018-12-11T06:46:31.772Z,2.70
2018-12-11T06:49:00.044Z,3.57
2018-12-11T06:51:28.294Z,2.60
2018-12-11T06:53:56.526Z,3.17
2018-12-11T06:56:24.860Z,3.60
2018-12-11T06:58:53.117Z,3.00
2018-12-11T07:01:21.379Z,2.63
2018-12-11T07:03:49.639Z,3.30
2018-12-11T07:06:17.876Z,3.20
2018-12-11T07:08:46.177Z,2.57
2018-12-11T07:11:14.394Z,2.90
2018-12-11T07:13:42.644Z,2.73
2018-12-11T07:16:10.941Z,2.30
2018-12-11T07:18:39.176Z,2.73
2018-12-11T07:21:07.389Z,2.43
2018-12-11T07:23:35.605Z,3.03
2018-12-11T07:26:04.003Z,2.77
2018-12-11T07:28:32.207Z,2.53
2018-12-11T07:31:00.443Z,2.27
2018-12-11T07:33:28.658Z,2.43
2018-12-11T07:35:56.912Z,2.10
2018-12-11T07:38:25.241Z,2.87
2018-12-11T07:40:53.532Z,2.47
2018-12-11T07:43:21.807Z,2.40
2018-12-11T07:45:50.177Z,2.70
2018-12-11T07:48:18.451Z,2.10
2018-12-11T07:50:46.677Z,2.23
2018-12-11T07:53:14.960Z,2.93
2018-12-11T07:55:43.197Z,2.07
2018-12-11T07:58:11.459Z,2.67
2018-12-11T08:00:39.738Z,2.80
2018-12-11T08:03:11.105Z,2.93
2018-12-11T08:05:39.866Z,2.87
2018-12-11T08:08:10.278Z,2.90
2018-12-11T08:10:38.568Z,1.97
2018-12-11T08:13:06.905Z,1.97
2018-12-11T08:15:35.147Z,3.37
2018-12-11T08:18:03.399Z,3.27
2018-12-11T08:20:31.672Z,2.67
2018-12-11T08:22:59.935Z,2.77
2018-12-11T08:25:28.183Z,2.27
2018-12-11T08:27:56.408Z,2.27
2018-12-11T08:30:24.642Z,2.40
2018-12-11T08:32:52.919Z,2.70
2018-12-11T08:35:21.162Z,2.73
2018-12-11T08:37:49.540Z,2.10
2018-12-11T08:40:17.815Z,2.10
2018-12-11T08:42:46.093Z,2.27
2018-12-11T08:45:14.326Z,2.43
2018-12-11T08:47:42.563Z,1.87
2018-12-11T08:50:10.840Z,2.50
2018-12-11T08:52:39.120Z,2.10
2018-12-11T08:55:07.432Z,2.37
2018-12-11T08:57:35.750Z,1.80
2018-12-11T09:00:04.469Z,2.40
2018-12-11T09:02:32.822Z,2.10
2018-12-11T09:05:01.084Z,1.80
2018-12-11T09:07:29.338Z,1.80
2018-12-11T09:09:57.569Z,1.33
2018-12-11T09:12:25.814Z,1.93
2018-12-11T09:14:54.096Z,1.50
2018-12-11T09:17:22.334Z,2.17
2018-12-11T09:19:50.657Z,1.80
2018-12-11T09:22:18.952Z,2.30
2018-12-11T09:24:47.256Z,1.43
2018-12-11T09:27:15.648Z,1.60
2018-12-11T09:29:43.998Z,2.73
2018-12-11T09:32:12.223Z,2.07
2018-12-11T09:34:40.456Z,1.57
2018-12-11T09:37:09.170Z,1.70
2018-12-11T09:39:37.507Z,2.20
2018-12-11T09:42:07.363Z,2.23
2018-12-11T09:44:36.099Z,1.90
2018-12-11T09:47:04.403Z,1.70
2018-12-11T09:49:32.751Z,1.63
2018-12-11T09:52:01.005Z,1.63
2018-12-11T09:54:29.243Z,1.80
2018-12-11T09:56:58.039Z,2.13
2018-12-11T09:59:26.410Z,2.10
2018-12-11T10:01:54.713Z,1.93
2018-12-11T10:04:22.920Z,1.87
2018-12-11T10:06:51.142Z,1.83
2018-12-11T10:09:19.528Z,1.70
2018-12-11T10:11:48.024Z,1.67
2018-12-11T10:14:16.345Z,2.10
2018-12-11T10:16:44.583Z,2.03
2018-12-11T10:19:12.815Z,1.80
2018-12-11T10:21:41.188Z,1.57
2018-12-11T10:24:09.465Z,1.83
2018-12-11T10:26:37.732Z,2.40
2018-12-11T10:29:06.271Z,1.60
2018-12-11T10:31:34.559Z,2.00
2018-12-11T10:34:02.830Z,1.60
2018-12-11T10:36:31.113Z,2.07
2018-12-11T10:38:59.346Z,1.30
2018-12-11T10:41:27.575Z,1.80
2018-12-11T10:43:56.189Z,1.90
2018-12-11T10:46:24.420Z,2.07
2018-12-11T10:48:52.662Z,1.83
2018-12-11T10:51:20.925Z,1.40
2018-12-11T10:53:49.143Z,1.83
2018-12-11T10:56:17.455Z,1.63
2018-12-11T10:58:45.787Z,1.50
2018-12-11T11:01:19.118Z,1.53
2018-12-11T11:03:47.679Z,1.60
2018-12-11T11:06:15.927Z,1.80
2018-12-11T11:08:44.231Z,1.70
2018-12-11T11:11:12.531Z,1.90
2018-12-11T11:13:40.779Z,1.80
2018-12-11T11:16:14.667Z,1.80
2018-12-11T11:18:44.020Z,1.77
2018-12-11T11:21:12.329Z,1.60
2018-12-11T11:23:40.534Z,2.10
2018-12-11T11:26:08.795Z,1.90
2018-12-11T11:28:37.090Z,2.10
2018-12-11T11:31:05.506Z,1.90
2018-12-11T11:33:33.946Z,1.67
2018-12-11T11:36:02.287Z,2.13
2018-12-11T11:38:30.537Z,1.50
2018-12-11T11:40:58.759Z,2.20
2018-12-11T11:43:26.981Z,2.43
2018-12-11T11:45:55.213Z,2.20
2018-12-11T11:48:23.510Z,1.80
2018-12-11T11:50:51.746Z,1.73
2018-12-11T11:53:20.104Z,2.00
2018-12-11T11:55:48.323Z,2.20
2018-12-11T11:58:16.568Z,2.03
2018-12-11T12:00:44.940Z,1.90
2018-12-11T12:03:13.198Z,2.00
2018-12-11T12:05:41.505Z,1.50
2018-12-11T12:08:09.750Z,2.93
2018-12-11T12:10:38.199Z,2.13
2018-12-11T12:13:06.415Z,2.43
2018-12-11T12:15:34.617Z,2.33
2018-12-11T12:18:02.850Z,1.50
2018-12-11T12:20:31.133Z,2.07
2018-12-11T12:22:59.463Z,1.80
2018-12-11T12:25:28.268Z,2.17
2018-12-11T12:27:56.506Z,1.77
2018-12-11T12:30:26.630Z,2.17
2018-12-11T12:32:54.874Z,1.70
2018-12-11T12:35:23.140Z,1.87
2018-12-11T12:37:51.411Z,1.90
2018-12-11T12:40:19.620Z,1.60
2018-12-11T12:42:47.840Z,1.70
2018-12-11T12:45:16.047Z,1.37
2018-12-11T12:47:44.353Z,2.07
2018-12-11T12:50:12.569Z,2.03
2018-12-11T12:52:40.881Z,1.93
2018-12-11T12:55:09.197Z,1.93
2018-12-11T12:57:37.438Z,1.90
2018-12-11T13:00:08.271Z,2.27
2018-12-11T13:02:36.502Z,2.10
2018-12-11T13:05:05.435Z,1.53
2018-12-11T13:07:33.747Z,1.77
2018-12-11T13:10:02.078Z,2.03
2018-12-11T13:12:30.840Z,1.70
2018-12-11T13:14:59.102Z,1.67
2018-12-11T13:17:27.342Z,2.50
2018-12-11T13:19:55.568Z,1.90
2018-12-11T13:22:23.909Z,2.23
2018-12-11T13:24:52.162Z,2.43
2018-12-11T13:27:26.184Z,3.37
2018-12-11T13:29:54.390Z,2.10
2018-12-11T13:32:22.652Z,2.23
2018-12-11T13:34:50.929Z,2.00
2018-12-11T13:37:19.272Z,1.93
2018-12-11T13:39:47.523Z,2.07
2018-12-11T13:42:15.868Z,2.20
2018-12-11T13:44:44.087Z,2.37
2018-12-11T13:47:12.509Z,2.00
2018-12-11T13:49:40.755Z,2.67
2018-12-11T13:52:08.957Z,1.97
2018-12-11T13:54:37.271Z,2.67
2018-12-11T13:57:05.580Z,2.20
2018-12-11T13:59:33.818Z,2.17
2018-12-11T14:02:02.040Z,2.07
2018-12-11T14:04:30.292Z,2.20
2018-12-11T14:06:58.615Z,1.97
2018-12-11T14:09:32.363Z,2.70
2018-12-11T14:12:00.688Z,1.60
2018-12-11T14:14:28.908Z,2.00
2018-12-11T14:16:57.115Z,2.43
2018-12-11T14:19:25.443Z,2.03
2018-12-11T14:21:53.746Z,2.13
2018-12-11T14:24:22.011Z,1.90
2018-12-11T14:26:50.295Z,1.97
2018-12-11T14:29:18.632Z,2.30
2018-12-11T14:31:47.084Z,2.00
2018-12-11T14:34:15.330Z,1.73
2018-12-11T14:36:43.699Z,1.60
2018-12-11T14:39:12.182Z,2.30
2018-12-11T14:41:40.392Z,2.07
2018-12-11T14:44:08.682Z,1.80
2018-12-11T14:46:37.026Z,2.33
2018-12-11T14:49:05.334Z,2.00
2018-12-11T14:51:33.612Z,2.40
2018-12-11T14:54:02.212Z,2.37
2018-12-11T14:56:30.575Z,2.10
2018-12-11T14:58:58.788Z,2.23
2018-12-11T15:01:27.068Z,2.23
2018-12-11T15:03:55.314Z,2.30
2018-12-11T15:06:23.553Z,2.43
2018-12-11T15:08:51.958Z,2.10
2018-12-11T15:11:20.183Z,3.10
2018-12-11T15:13:48.410Z,2.00
2018-12-11T15:16:17.077Z,2.20
2018-12-11T15:18:45.359Z,1.83
2018-12-11T15:21:13.590Z,2.27
2018-12-11T15:23:41.848Z,2.30
2018-12-11T15:26:10.119Z,2.27
2018-12-11T15:28:38.394Z,2.23
2018-12-11T15:31:11.115Z,2.33
2018-12-11T15:33:39.346Z,1.83
2018-12-11T15:36:07.661Z,2.40
2018-12-11T15:38:35.891Z,2.27
2018-12-11T15:41:04.325Z,1.57
2018-12-11T15:43:32.803Z,2.27
2018-12-11T15:46:01.219Z,2.10
2018-12-11T15:48:29.704Z,2.67
2018-12-11T15:50:58.070Z,2.30
2018-12-11T15:53:27.015Z,2.50
2018-12-11T15:55:55.248Z,1.83
2018-12-11T15:58:25.045Z,3.70
2018-12-11T16:00:53.812Z,2.90
2018-12-11T16:03:22.146Z,2.80
2018-12-11T16:05:50.420Z,1.93
2018-12-11T16:08:18.704Z,2.20
2018-12-11T16:10:46.932Z,2.10
2018-12-11T16:13:15.272Z,2.30
2018-12-11T16:15:43.699Z,2.57
2018-12-11T16:18:11.984Z,2.00
2018-12-11T16:20:40.344Z,2.80
2018-12-11T16:23:08.563Z,2.77
2018-12-11T16:25:36.823Z,1.90
2018-12-11T16:28:05.059Z,2.40
2018-12-11T16:30:33.337Z,2.63
2018-12-11T16:33:01.746Z,3.30
2018-12-11T16:35:29.977Z,3.37
2018-12-11T16:37:58.402Z,3.20
2018-12-11T16:40:26.666Z,2.83
2018-12-11T16:42:54.939Z,2.27
2018-12-11T16:45:23.285Z,2.23
2018-12-11T16:47:51.673Z,2.33
2018-12-11T16:50:19.985Z,2.50
2018-12-11T16:52:49.245Z,3.17
2018-12-11T16:55:17.544Z,3.10
2018-12-11T16:57:45.761Z,2.67
2018-12-11T17:00:14.806Z,2.03
2018-12-11T17:02:43.165Z,2.23
2018-12-11T17:05:11.480Z,1.93
2018-12-11T17:07:39.720Z,1.90
2018-12-11T17:10:08.175Z,2.40
2018-12-11T17:12:37.851Z,2.37
2018-12-11T17:15:10.906Z,2.60
2018-12-11T17:17:40.552Z,3.07
2018-12-11T17:20:09.330Z,3.23
2018-12-11T17:22:38.372Z,4.10
2018-12-11T17:25:06.719Z,2.53
2018-12-11T17:27:35.011Z,2.77
2018-12-11T17:30:03.625Z,2.40
2018-12-11T17:32:31.967Z,2.57
2018-12-11T17:35:00.326Z,2.80
2018-12-11T17:37:28.585Z,2.87
2018-12-11T17:39:56.810Z,3.13
2018-12-11T17:42:44.304Z,3.33
2018-12-11T17:45:12.584Z,2.60
2018-12-11T17:47:40.905Z,2.33
2018-12-11T17:50:09.467Z,2.50
2018-12-11T17:52:37.748Z,2.23
2018-12-11T17:55:06.197Z,2.43
2018-12-11T17:57:34.790Z,2.40
2018-12-11T18:00:03.393Z,2.40
2018-12-11T18:02:35.835Z,2.57
2018-12-11T18:05:05.233Z,2.97
2018-12-11T18:07:33.495Z,2.00
2018-12-11T18:10:01.971Z,4.30
2018-12-11T18:12:30.309Z,4.20
2018-12-11T18:14:58.676Z,3.40
2018-12-11T18:17:27.273Z,2.30
2018-12-11T18:19:55.789Z,2.60
2018-12-11T18:22:24.151Z,2.37
2018-12-11T18:24:52.468Z,2.67
2018-12-11T18:27:20.787Z,2.70
2018-12-11T18:29:49.061Z,3.60
2018-12-11T18:32:17.529Z,2.53
2018-12-11T18:34:48.206Z,2.67
2018-12-11T18:37:16.455Z,2.30
2018-12-11T18:39:44.898Z,2.40
2018-12-11T18:42:13.199Z,1.87
2018-12-11T18:44:41.628Z,2.40
2018-12-11T18:47:09.947Z,1.90
2018-12-11T18:49:38.347Z,2.80
2018-12-11T18:52:06.816Z,2.20
2018-12-11T18:54:35.369Z,2.20
2018-12-11T18:57:03.679Z,2.63
2018-12-11T18:59:32.267Z,1.83
2018-12-11T19:02:00.616Z,2.20
2018-12-11T19:04:29.003Z,2.30
2018-12-11T19:06:57.530Z,2.90
2018-12-11T19:09:25.896Z,2.60
2018-12-11T19:11:54.192Z,2.80
2018-12-11T19:14:22.496Z,2.70
2018-12-11T19:16:50.845Z,2.57
2018-12-11T19:19:19.281Z,2.80
2018-12-11T19:21:47.614Z,3.23
2018-12-11T19:24:30.930Z,2.27
2018-12-11T19:26:59.254Z,5.97
2018-12-11T19:29:27.924Z,2.97
2018-12-11T19:34:48.857Z,2.27
2018-12-11T19:40:10.530Z,1.80
2018-12-11T19:42:39.719Z,2.27
2018-12-11T19:45:08.343Z,1.80
2018-12-11T19:47:36.924Z,2.00
2018-12-11T19:50:06.037Z,1.83
2018-12-11T19:52:39.663Z,1.83
2018-12-11T19:55:05.181Z,2.30
2018-12-11T19:57:33.735Z,2.00
2018-12-11T20:00:02.075Z,2.30
2018-12-11T20:02:30.616Z,1.77
2018-12-11T20:04:59.148Z,2.23
2018-12-11T20:07:27.482Z,1.77
2018-12-11T20:10:01.335Z,2.10
2018-12-11T20:12:30.030Z,2.07
2018-12-11T20:15:04.730Z,1.80
2018-12-11T20:17:31.385Z,1.80
2018-12-11T20:20:00.568Z,2.20
2018-12-11T20:22:30.045Z,2.10
2018-12-11T20:24:59.417Z,2.13
2018-12-11T20:27:28.683Z,2.00
2018-12-11T20:29:58.064Z,2.40
2018-12-11T20:32:27.259Z,2.20
2018-12-11T20:34:56.527Z,2.30
2018-12-11T20:37:26.473Z,2.60
2018-12-11T20:39:56.485Z,1.97
2018-12-11T20:42:26.198Z,2.67
2018-12-11T20:44:55.360Z,2.33
2018-12-11T20:47:24.760Z,2.30
2018-12-11T20:49:54.353Z,2.17
2018-12-11T20:52:23.859Z,2.10
2018-12-11T20:54:52.708Z,2.20
2018-12-11T20:57:21.278Z,2.53
2018-12-11T20:59:50.583Z,2.07
2018-12-11T21:02:20.110Z,2.20
2018-12-11T21:04:49.272Z,2.20
2018-12-11T21:07:18.754Z,2.30
2018-12-11T21:09:48.243Z,2.13
2018-12-11T21:12:17.862Z,2.30
2018-12-11T21:14:46.408Z,2.17
2018-12-11T21:17:15.542Z,2.27
2018-12-11T21:19:44.096Z,2.23
2018-12-11T21:22:12.760Z,2.30
2018-12-11T21:24:41.075Z,2.40
2018-12-11T21:27:09.486Z,2.43
2018-12-11T21:29:37.934Z,2.37
2018-12-11T21:32:06.482Z,2.20
2018-12-11T21:34:34.983Z,4.00
2018-12-11T21:37:03.306Z,2.00
2018-12-11T21:39:31.712Z,2.63
2018-12-11T21:42:00.183Z,1.97
2018-12-11T21:44:29.206Z,2.60
2018-12-11T21:46:57.785Z,2.20
2018-12-11T21:49:26.138Z,1.90
2018-12-11T21:51:54.524Z,1.80
2018-12-11T21:54:23.547Z,2.17
2018-12-11T21:56:52.227Z,1.97
2018-12-11T21:59:20.618Z,2.00
2018-12-11T22:01:49.012Z,2.10
2018-12-11T22:04:17.616Z,2.73
2018-12-11T22:06:45.940Z,1.90
2018-12-11T22:09:14.465Z,1.80
2018-12-11T22:11:42.778Z,2.30
2018-12-11T22:14:11.199Z,2.00
2018-12-11T22:16:39.496Z,2.73
2018-12-11T22:19:07.815Z,1.93
2018-12-11T22:21:36.208Z,1.90
2018-12-11T22:24:04.683Z,2.00
2018-12-11T22:26:33.066Z,2.63
2018-12-11T22:29:01.397Z,2.10
2018-12-11T22:31:29.732Z,2.27
2018-12-11T22:33:58.070Z,2.00
2018-12-11T22:36:26.427Z,2.30
2018-12-11T22:38:54.823Z,2.17
2018-12-11T22:41:23.176Z,2.00
2018-12-11T22:43:51.406Z,2.30
2018-12-11T22:46:19.762Z,2.77
2018-12-11T22:48:48.361Z,2.30
2018-12-11T22:51:16.719Z,2.03
2018-12-11T22:53:45.031Z,2.60
2018-12-11T22:56:13.339Z,2.33
2018-12-11T22:58:41.606Z,2.00
2018-12-11T23:01:10.177Z,2.17
2018-12-11T23:03:38.513Z,2.80
2018-12-11T23:06:07.280Z,2.40
2018-12-11T23:08:35.767Z,2.20
2018-12-11T23:11:04.256Z,2.50
2018-12-11T23:13:32.500Z,2.60
2018-12-11T23:16:00.816Z,1.73
2018-12-11T23:18:35.655Z,2.10
2018-12-11T23:21:03.933Z,2.30
2018-12-11T23:23:32.427Z,2.53
2018-12-11T23:26:00.752Z,2.13
2018-12-11T23:28:29.031Z,2.53
2018-12-11T23:30:57.439Z,2.73
2018-12-11T23:33:25.882Z,2.47
2018-12-11T23:35:54.168Z,2.70
2018-12-11T23:38:22.587Z,2.40
2018-12-11T23:40:51.051Z,2.50
2018-12-11T23:43:19.323Z,2.47
2018-12-11T23:45:47.728Z,2.60
2018-12-11T23:48:15.961Z,2.50
2018-12-11T23:50:44.227Z,2.50
2018-12-11T23:53:12.520Z,2.20
2018-12-11T23:55:40.750Z,2.50
2018-12-11T23:58:09.680Z,2.40
